Time;durP1;ratioP1;P1;durP2;ratioP2;P2;SDS_P1;SDS_P2;PMS_P1;PMS_P2;Temp;Humidity;BMP_temperature;BMP_pressure;BME280_temperature;BME280_humidity;BME280_pressure;Samples;Min_cycle;Max_cycle;Signal;HPM_P1;HPM_P2
2022/10/21 00:02:01;;;;;;;29.00;19.92;;;;;;;15.18;100.00;96448.25;5083487;28;20195;-58
2022/10/21 00:04:27;;;;;;;22.33;18.77;;;;;;;15.21;100.00;96452.38;5083434;28;20332;-58
2022/10/21 00:06:54;;;;;;;25.17;20.60;;;;;;;15.26;100.00;96484.66;5083387;28;20734;-57
2022/10/21 00:09:23;;;;;;;25.55;20.85;;;;;;;15.31;100.00;96484.97;5082070;28;20290;-58
2022/10/21 00:11:50;;;;;;;25.35;21.50;;;;;;;15.23;100.00;96461.06;5083268;28;20222;-57
2022/10/21 00:14:16;;;;;;;21.15;18.75;;;;;;;15.21;100.00;96474.53;5083257;28;20289;-57
2022/10/21 00:16:43;;;;;;;26.73;21.27;;;;;;;15.30;100.00;96505.44;5082844;28;20250;-58
2022/10/21 00:19:09;;;;;;;25.15;20.48;;;;;;;15.19;100.00;96430.44;5082781;28;20289;-58
2022/10/21 00:21:36;;;;;;;23.40;19.83;;;;;;;15.14;100.00;96425.63;5094552;28;20245;-57
2022/10/21 00:24:03;;;;;;;25.75;19.67;;;;;;;15.14;100.00;96478.91;5098298;28;20182;-58
2022/10/21 00:26:31;;;;;;;21.80;19.33;;;;;;;15.16;100.00;96468.09;5082631;28;20226;-58
2022/10/21 00:28:58;;;;;;;22.10;19.40;;;;;;;15.15;100.00;96456.59;5082981;28;20594;-57
2022/10/21 00:31:26;;;;;;;22.40;18.52;;;;;;;15.15;100.00;96480.56;5082606;28;20217;-57
2022/10/21 00:33:53;;;;;;;22.95;20.55;;;;;;;15.16;100.00;96476.09;5083006;28;20190;-57
2022/10/21 00:36:20;;;;;;;26.52;18.98;;;;;;;15.13;100.00;96489.72;5082705;28;20313;-58
2022/10/21 00:38:48;;;;;;;25.77;19.02;;;;;;;15.14;100.00;96488.72;5083200;28;20290;-57
2022/10/21 00:41:16;;;;;;;22.90;20.20;;;;;;;15.13;100.00;96487.91;5082757;28;20662;-57
2022/10/21 00:43:58;;;;;;;22.83;19.30;;;;;;;15.11;100.00;96473.09;5082747;28;20293;-58
2022/10/21 00:46:32;;;;;;;23.75;20.02;;;;;;;15.11;100.00;96457.13;5082321;28;21396;-57
2022/10/21 00:49:00;;;;;;;20.13;18.13;;;;;;;15.11;100.00;96447.28;5083101;28;20274;-58
2022/10/21 00:51:26;;;;;;;25.87;20.10;;;;;;;15.06;100.00;96454.13;5082354;28;20638;-57
2022/10/21 00:53:53;;;;;;;22.45;20.05;;;;;;;15.07;100.00;96463.78;5082550;28;20263;-58
2022/10/21 00:56:23;;;;;;;21.52;19.15;;;;;;;15.06;100.00;96446.97;5082777;28;20289;-58
2022/10/21 00:58:51;;;;;;;23.30;19.08;;;;;;;15.08;100.00;96452.16;5082962;28;20568;-57
2022/10/21 01:01:19;;;;;;;21.15;18.50;;;;;;;15.07;100.00;96442.50;5082870;28;20292;-58
2022/10/21 01:03:46;;;;;;;21.77;19.23;;;;;;;15.04;100.00;96446.34;5082211;28;20208;-57
2022/10/21 01:06:13;;;;;;;22.50;18.42;;;;;;;15.09;100.00;96443.16;5083319;28;20241;-56
2022/10/21 01:08:40;;;;;;;25.80;18.80;;;;;;;15.05;100.00;96447.19;5096338;28;20277;-57
2022/10/21 01:11:12;;;;;;;25.02;18.50;;;;;;;14.97;100.00;96433.91;5098870;28;20225;-58
2022/10/21 01:13:43;;;;;;;27.50;19.58;;;;;;;14.94;100.00;96448.41;5095631;28;20214;-57
2022/10/21 01:16:16;;;;;;;23.58;18.15;;;;;;;14.91;100.00;96436.25;5091365;28;20238;-57
2022/10/21 01:18:48;;;;;;;24.63;19.65;;;;;;;14.90;100.00;96445.25;5092653;28;20218;-58
2022/10/21 01:21:26;;;;;;;22.02;19.65;;;;;;;14.91;100.00;96444.22;5090807;28;20205;-57
2022/10/21 01:24:11;;;;;;;22.10;18.67;;;;;;;14.92;100.00;96443.22;5097193;28;20225;-58
2022/10/21 01:27:25;;;;;;;20.13;17.90;;;;;;;14.92;100.00;96443.22;5094297;28;20244;-58
2022/10/21 01:30:12;;;;;;;26.00;19.65;;;;;;;14.94;100.00;96430.59;5078005;28;20203;-58
2022/10/21 01:33:14;;;;;;;24.80;19.05;;;;;;;14.97;100.00;96465.84;5093814;28;20285;-58
2022/10/21 01:35:46;;;;;;;25.98;21.50;;;;;;;15.02;100.00;96447.53;5100356;28;20550;-58
2022/10/21 01:38:20;;;;;;;23.88;20.40;;;;;;;14.91;100.00;96433.56;5097561;28;20246;-59
2022/10/21 01:40:52;;;;;;;22.40;20.02;;;;;;;14.94;100.00;96457.22;5099703;28;20210;-58
2022/10/21 01:43:22;;;;;;;22.30;19.90;;;;;;;15.02;100.00;96468.84;5101114;28;20215;-57
2022/10/21 01:45:51;;;;;;;23.17;20.70;;;;;;;14.97;100.00;96455.19;5099403;28;20202;-58
2022/10/21 01:48:22;;;;;;;22.00;18.70;;;;;;;15.00;100.00;96465.50;5098097;28;20218;-57
2022/10/21 01:50:52;;;;;;;24.13;20.00;;;;;;;14.98;100.00;96472.84;5081718;28;20326;-57
2022/10/21 01:53:21;;;;;;;24.93;19.77;;;;;;;14.97;100.00;96455.19;5081756;28;20731;-58
2022/10/21 01:55:49;;;;;;;22.07;19.53;;;;;;;14.95;100.00;96447.38;5082424;28;20209;-57
2022/10/21 01:58:19;;;;;;;22.83;20.13;;;;;;;14.94;100.00;96425.28;5081331;28;20265;-57
2022/10/21 02:00:46;;;;;;;24.92;18.60;;;;;;;14.95;100.00;96413.59;5081713;28;20208;-58
2022/10/21 02:03:17;;;;;;;26.60;19.80;;;;;;;14.93;100.00;96418.28;5081190;28;20194;-57
2022/10/21 02:05:44;;;;;;;26.30;19.92;;;;;;;14.94;100.00;96398.63;5081763;28;20230;-58
2022/10/21 02:08:13;;;;;;;26.35;20.35;;;;;;;14.92;100.00;96416.59;5080751;28;20297;-57
2022/10/21 02:10:43;;;;;;;24.35;20.13;;;;;;;14.91;100.00;96404.28;5081252;28;20254;-58
2022/10/21 02:13:11;;;;;;;23.25;18.65;;;;;;;14.92;100.00;96402.47;5081870;28;20230;-58
2022/10/21 02:15:38;;;;;;;22.13;19.83;;;;;;;14.90;100.00;96381.34;5081248;28;20212;-58
2022/10/21 02:18:07;;;;;;;21.77;19.42;;;;;;;14.89;100.00;96390.34;5080487;28;20689;-58
2022/10/21 02:20:36;;;;;;;27.42;19.17;;;;;;;14.86;100.00;96389.84;5080785;28;20277;-57
2022/10/21 02:23:05;;;;;;;24.42;17.90;;;;;;;14.85;100.00;96380.22;5080942;28;20305;-57
2022/10/21 02:25:36;;;;;;;23.60;18.27;;;;;;;14.86;100.00;96358.75;5080120;28;20230;-58
2022/10/21 02:28:03;;;;;;;21.77;16.77;;;;;;;14.83;100.00;96348.47;5080863;28;20195;-58
2022/10/21 02:30:35;;;;;;;20.65;17.30;;;;;;;14.81;100.00;96350.44;5080456;28;20210;-58
2022/10/21 02:33:06;;;;;;;21.45;17.45;;;;;;;14.80;100.00;96348.81;5084685;28;20182;-57
2022/10/21 02:35:39;;;;;;;26.55;17.25;;;;;;;14.79;100.00;96343.66;5084975;28;20221;-57
2022/10/21 02:38:10;;;;;;;19.42;15.68;;;;;;;14.81;100.00;96344.28;5084687;28;20293;-57
2022/10/21 02:40:42;;;;;;;18.63;15.30;;;;;;;14.76;100.00;96346.66;5084729;28;20674;-58
2022/10/21 02:43:11;;;;;;;17.77;15.93;;;;;;;14.76;100.00;96339.53;5084540;28;20293;-58
2022/10/21 02:45:39;;;;;;;17.33;15.48;;;;;;;14.76;100.00;96339.53;5084736;28;20301;-58
2022/10/21 02:48:06;;;;;;;17.20;15.35;;;;;;;14.73;100.00;96347.84;5083905;28;20538;-58
2022/10/21 02:50:33;;;;;;;18.48;16.17;;;;;;;14.75;100.00;96353.81;5084342;28;20291;-58
2022/10/21 02:52:59;;;;;;;19.10;15.20;;;;;;;14.73;100.00;96353.19;5086923;28;20282;-57
2022/10/21 02:55:26;;;;;;;20.80;15.93;;;;;;;14.69;100.00;96343.06;5087657;28;21395;-58
2022/10/21 02:57:54;;;;;;;23.30;17.30;;;;;;;14.72;100.00;96345.34;5067589;28;20280;-58
2022/10/21 03:00:21;;;;;;;18.48;16.50;;;;;;;14.73;100.00;96341.69;5084761;28;20202;-57
2022/10/21 03:02:48;;;;;;;21.00;16.93;;;;;;;14.72;100.00;96340.03;5084417;28;20803;-58
2022/10/21 03:05:15;;;;;;;20.70;16.55;;;;;;;14.76;100.00;96347.50;5085083;28;21406;-58
2022/10/21 03:07:41;;;;;;;20.42;16.42;;;;;;;14.76;100.00;96350.16;5084326;28;20709;-56
2022/10/21 03:10:09;;;;;;;20.33;17.00;;;;;;;14.73;100.00;96334.56;5084373;28;20260;-57
2022/10/21 03:12:35;;;;;;;21.55;16.98;;;;;;;14.73;100.00;96331.06;5084617;28;20221;-57
2022/10/21 03:15:04;;;;;;;23.77;17.47;;;;;;;14.72;100.00;96326.72;5084613;28;20222;-57
2022/10/21 03:17:30;;;;;;;19.90;16.98;;;;;;;14.73;100.00;96321.25;5083806;28;20230;-58
2022/10/21 03:19:57;;;;;;;18.77;16.88;;;;;;;14.71;100.00;96315.25;5084364;28;20293;-57
2022/10/21 03:22:26;;;;;;;21.20;16.13;;;;;;;14.70;100.00;96326.88;5084527;28;20552;-57
2022/10/21 03:24:52;;;;;;;20.10;17.10;;;;;;;14.69;100.00;96329.75;5085359;28;20202;-57
2022/10/21 03:27:19;;;;;;;23.77;16.60;;;;;;;14.70;100.00;96332.22;5084041;28;20200;-58
2022/10/21 03:29:46;;;;;;;22.35;16.58;;;;;;;14.69;100.00;96325.25;5101797;28;20199;-57
2022/10/21 03:32:14;;;;;;;19.70;17.10;;;;;;;14.73;100.00;96315.09;5102930;28;20210;-58
2022/10/21 03:34:40;;;;;;;23.23;18.27;;;;;;;14.71;100.00;96317.06;5102300;28;20236;-57
2022/10/21 03:37:07;;;;;;;24.85;17.75;;;;;;;14.69;100.00;96319.94;5087622;28;21349;-58
2022/10/21 03:39:34;;;;;;;22.60;17.17;;;;;;;14.72;100.00;96326.72;5085577;28;20322;-58
2022/10/21 03:42:00;;;;;;;21.75;18.88;;;;;;;14.72;100.00;96314.25;5084111;28;20289;-57
2022/10/21 03:44:27;;;;;;;21.75;18.13;;;;;;;14.75;100.00;96334.34;5084386;28;20280;-58
2022/10/21 03:46:54;;;;;;;20.85;18.45;;;;;;;14.74;100.00;96327.38;5084049;28;20278;-57
2022/10/21 03:49:22;;;;;;;22.42;17.35;;;;;;;14.76;100.00;96320.06;5084558;28;20316;-58
2022/10/21 03:51:51;;;;;;;19.95;17.27;;;;;;;14.75;100.00;96319.22;5085850;28;20286;-57
2022/10/21 03:54:18;;;;;;;22.02;18.55;;;;;;;14.74;100.00;96327.38;5084399;28;20216;-58
2022/10/21 03:56:45;;;;;;;23.40;18.27;;;;;;;14.75;100.00;96318.38;5085047;28;20293;-57
2022/10/21 03:59:12;;;;;;;24.73;17.23;;;;;;;14.73;100.00;96313.25;5084913;28;20613;-57
2022/10/21 04:01:38;;;;;;;23.40;18.25;;;;;;;14.73;100.00;96312.44;5084658;28;20297;-58
2022/10/21 04:04:05;;;;;;;20.60;17.08;;;;;;;14.73;100.00;96309.75;5084143;28;20289;-57
2022/10/21 04:06:35;;;;;;;25.90;17.17;;;;;;;14.71;100.00;96317.91;5084294;28;20305;-58
2022/10/21 04:09:02;;;;;;;20.73;16.27;;;;;;;14.73;100.00;96309.75;5084336;28;20633;-58
2022/10/21 04:11:28;;;;;;;20.70;18.50;;;;;;;14.70;100.00;96300.28;5083545;28;20225;-57
2022/10/21 04:13:55;;;;;;;21.05;18.70;;;;;;;14.72;100.00;96294.78;5082925;28;20534;-57
2022/10/21 04:16:24;;;;;;;21.73;19.43;;;;;;;14.69;100.00;96289.81;5083632;28;20777;-58
2022/10/21 04:18:52;;;;;;;24.60;19.52;;;;;;;14.69;100.00;96295.16;5083509;28;20256;-58
2022/10/21 04:21:18;;;;;;;23.03;20.07;;;;;;;14.68;100.00;96286.31;5083763;28;20285;-58
2022/10/21 04:23:49;;;;;;;22.73;20.17;;;;;;;14.68;100.00;96275.69;5084158;28;20285;-57
2022/10/21 04:26:17;;;;;;;22.80;19.55;;;;;;;14.68;100.00;96257.06;5085267;28;20218;-57
2022/10/21 04:28:44;;;;;;;22.67;19.63;;;;;;;14.71;100.00;96266.50;5085497;28;20275;-58
2022/10/21 04:31:11;;;;;;;24.98;20.98;;;;;;;14.70;100.00;96272.84;5084924;28;20210;-57
2022/10/21 04:33:38;;;;;;;23.60;20.92;;;;;;;14.70;100.00;96259.56;5086051;28;20245;-58
2022/10/21 04:36:05;;;;;;;20.83;18.30;;;;;;;14.72;100.00;96266.34;5084071;28;20248;-58
2022/10/21 04:38:32;;;;;;;25.33;22.67;;;;;;;14.72;100.00;96255.69;5082313;28;20304;-57
2022/10/21 04:41:01;;;;;;;25.02;22.33;;;;;;;14.72;100.00;96249.53;5084231;28;20206;-58
2022/10/21 04:43:28;;;;;;;22.90;20.40;;;;;;;14.71;100.00;96221.25;5083722;28;20241;-57
2022/10/21 04:45:55;;;;;;;25.05;21.17;;;;;;;14.70;100.00;96204.47;5084422;28;20200;-57
2022/10/21 04:48:23;;;;;;;26.13;21.67;;;;;;;14.74;100.00;96196.94;5082987;28;20324;-58
2022/10/21 04:50:50;;;;;;;28.33;23.38;;;;;;;14.69;100.00;96192.19;5082616;28;20307;-57
2022/10/21 04:53:17;;;;;;;23.00;20.58;;;;;;;14.67;100.00;96188.84;5083129;28;20205;-57
2022/10/21 04:55:44;;;;;;;24.58;21.92;;;;;;;14.69;100.00;96200.16;5083478;28;20198;-57
2022/10/21 04:58:12;;;;;;;24.33;20.98;;;;;;;14.68;100.00;96190.53;5083922;28;20221;-57
2022/10/21 05:00:41;;;;;;;28.27;22.23;;;;;;;14.69;100.00;96186.03;5083644;28;20289;-57
2022/10/21 05:03:10;;;;;;;25.23;22.45;;;;;;;14.66;100.00;96181.91;5082435;28;20241;-57
2022/10/21 05:05:37;;;;;;;27.45;22.30;;;;;;;14.66;100.00;96176.56;5082094;28;20695;-57
2022/10/21 05:08:03;;;;;;;24.15;21.55;;;;;;;14.67;100.00;96174.72;5082477;28;20627;-57
2022/10/21 05:10:30;;;;;;;24.92;22.00;;;;;;;14.67;100.00;96172.88;5082261;28;20226;-57
2022/10/21 05:12:58;;;;;;;25.50;21.67;;;;;;;14.66;100.00;96181.91;5082545;28;20261;-57
2022/10/21 05:15:27;;;;;;;27.17;21.52;;;;;;;14.67;100.00;96199.50;5082353;28;20661;-58
2022/10/21 05:17:54;;;;;;;29.42;23.38;;;;;;;14.69;100.00;96209.97;5082276;28;20231;-57
2022/10/21 05:20:20;;;;;;;27.60;22.80;;;;;;;14.66;100.00;96216.50;5081722;28;20291;-58
2022/10/21 05:22:48;;;;;;;26.60;21.40;;;;;;;14.65;100.00;96212.16;5082397;28;20281;-57
2022/10/21 05:25:15;;;;;;;25.27;22.58;;;;;;;14.65;100.00;96214.84;5082030;28;20288;-57
2022/10/21 05:27:41;;;;;;;26.05;22.02;;;;;;;14.63;100.00;96210.69;5082548;28;20283;-57
2022/10/21 05:30:09;;;;;;;25.15;22.23;;;;;;;14.64;100.00;96204.34;5082867;28;20233;-57
2022/10/21 05:32:38;;;;;;;27.35;21.15;;;;;;;14.63;100.00;96200.06;5082413;28;20318;-57
2022/10/21 05:35:05;;;;;;;26.45;20.77;;;;;;;14.64;100.00;96191.88;5083351;28;20300;-58
2022/10/21 05:37:31;;;;;;;23.55;21.10;;;;;;;14.66;100.00;96189.06;5082539;28;20286;-58
2022/10/21 05:39:58;;;;;;;26.42;21.85;;;;;;;14.63;100.00;96187.56;5082033;28;20252;-58
2022/10/21 05:42:25;;;;;;;26.23;21.60;;;;;;;14.59;100.00;96178.31;5081955;28;20198;-57
2022/10/21 05:44:52;;;;;;;31.33;22.65;;;;;;;14.59;100.00;96172.97;5081429;28;20194;-57
2022/10/21 05:47:22;;;;;;;24.47;21.23;;;;;;;14.57;100.00;96163.50;5081812;28;20221;-58
2022/10/21 05:49:51;;;;;;;23.63;20.20;;;;;;;14.57;100.00;96160.84;5081250;28;20693;-57
2022/10/21 05:52:18;;;;;;;28.10;20.73;;;;;;;14.57;100.00;96164.31;5086728;28;20220;-58
2022/10/21 05:54:45;;;;;;;24.65;19.95;;;;;;;14.56;100.00;96154.69;5096540;28;20245;-57
2022/10/21 05:57:12;;;;;;;21.42;19.13;;;;;;;14.58;100.00;96152.69;5098084;28;20209;-57
2022/10/21 05:59:38;;;;;;;22.37;19.97;;;;;;;14.59;100.00;96154.34;5092276;28;20214;-57
2022/10/21 06:02:05;;;;;;;23.05;19.55;;;;;;;14.58;100.00;96160.66;5081928;28;20513;-58
2022/10/21 06:04:32;;;;;;;24.33;20.53;;;;;;;14.60;100.00;96176.44;5082576;28;20305;-58
2022/10/21 06:07:00;;;;;;;22.67;19.15;;;;;;;14.62;100.00;96196.56;5063758;28;20259;-57
2022/10/21 06:09:27;;;;;;;32.40;21.40;;;;;;;14.64;100.00;96226.47;5081370;28;21429;-58
2022/10/21 06:11:56;;;;;;;23.88;20.45;;;;;;;14.62;100.00;96265.75;5081841;28;20277;-58
2022/10/21 06:14:23;;;;;;;29.58;23.00;;;;;;;14.68;100.00;96296.97;5081722;28;20219;-57
2022/10/21 06:16:49;;;;;;;30.67;21.53;;;;;;;14.70;100.00;96304.78;5081344;28;20294;-58
2022/10/21 06:19:16;;;;;;;25.42;20.67;;;;;;;14.72;100.00;96316.91;5081491;28;20546;-57
2022/10/21 06:21:43;;;;;;;22.50;19.75;;;;;;;14.73;100.00;96321.25;5081521;28;20263;-57
2022/10/21 06:24:13;;;;;;;23.23;19.70;;;;;;;14.72;100.00;96330.22;5081578;28;20757;-57
2022/10/21 06:26:39;;;;;;;25.40;20.88;;;;;;;14.76;100.00;96336.84;5081215;28;20210;-57
2022/10/21 06:29:07;;;;;;;23.02;19.52;;;;;;;14.76;100.00;96350.16;5081315;28;20600;-57
2022/10/21 06:31:34;;;;;;;24.23;19.88;;;;;;;14.77;100.00;96367.78;5081497;28;20308;-57
2022/10/21 06:34:00;;;;;;;23.58;20.30;;;;;;;14.79;100.00;96373.75;5081725;28;20293;-57
2022/10/21 06:36:28;;;;;;;22.85;19.08;;;;;;;14.77;100.00;96367.78;5081531;28;20194;-57
2022/10/21 06:38:55;;;;;;;23.05;18.90;;;;;;;14.80;100.00;96370.09;5081257;28;20550;-57
2022/10/21 06:41:24;;;;;;;21.02;18.63;;;;;;;14.79;100.00;96357.78;5081239;28;20265;-57
2022/10/21 06:43:51;;;;;;;25.38;19.15;;;;;;;14.76;100.00;96331.53;5081605;28;20503;-57
2022/10/21 06:46:20;;;;;;;25.85;20.13;;;;;;;14.73;100.00;96289.31;5081140;28;20281;-57
2022/10/21 06:48:49;;;;;;;23.17;19.00;;;;;;;14.66;100.00;96240.44;5080979;28;20598;-56
2022/10/21 06:51:19;;;;;;;27.23;20.02;;;;;;;14.67;100.00;96239.41;5081180;28;20850;-58
2022/10/21 06:53:46;;;;;;;19.33;17.13;;;;;;;14.73;100.00;96270.66;5080988;28;20240;-55
2022/10/21 06:56:16;;;;;;;23.58;17.88;;;;;;;14.77;100.00;96266.63;5080943;28;20580;-58
2022/10/21 06:58:46;;;;;;;20.30;18.13;;;;;;;14.83;100.00;96267.75;5081295;28;20226;-58
2022/10/21 07:01:15;;;;;;;24.30;19.90;;;;;;;14.79;100.00;96261.97;5080730;28;20207;-58
2022/10/21 07:03:41;;;;;;;21.63;19.10;;;;;;;14.83;100.00;96273.09;5080978;28;20291;-57
2022/10/21 07:06:09;;;;;;;22.77;17.60;;;;;;;14.86;100.00;96273.56;5081000;28;20714;-58
2022/10/21 07:08:38;;;;;;;23.73;18.73;;;;;;;14.82;100.00;96268.75;5080399;28;20273;-58
2022/10/21 07:11:05;;;;;;;19.95;16.58;;;;;;;14.88;100.00;96276.84;5081099;28;20538;-58
2022/10/21 07:13:35;;;;;;;18.70;15.90;;;;;;;14.92;100.00;96264.00;5080927;28;20642;-58
2022/10/21 07:16:05;;;;;;;23.83;17.00;;;;;;;14.91;100.00;96273.84;5080304;28;20622;-58
2022/10/21 07:18:33;;;;;;;22.80;18.00;;;;;;;14.94;100.00;96284.16;5083421;28;20668;-58
2022/10/21 07:21:04;;;;;;;19.98;15.48;;;;;;;14.98;100.00;96294.44;5084220;28;20202;-58
2022/10/21 07:23:31;;;;;;;17.23;15.43;;;;;;;15.03;100.00;96302.69;5085174;28;20523;-59
2022/10/21 07:25:57;;;;;;;17.27;15.48;;;;;;;15.05;100.00;96303.38;5066231;28;20623;-59
2022/10/21 07:28:26;;;;;;;18.13;14.85;;;;;;;15.08;100.00;96313.66;5085134;28;20604;-58
2022/10/21 07:30:55;;;;;;;22.30;15.90;;;;;;;15.10;100.00;96300.97;5084663;28;20198;-58
2022/10/21 07:33:23;;;;;;;18.98;15.85;;;;;;;15.09;100.00;96308.13;5085373;28;20217;-59
2022/10/21 07:35:50;;;;;;;17.95;15.45;;;;;;;15.13;100.00;96312.09;5084662;28;20225;-58
2022/10/21 07:38:16;;;;;;;20.02;16.25;;;;;;;15.10;100.00;96307.13;5084160;28;20283;-58
2022/10/21 07:40:44;;;;;;;19.30;15.50;;;;;;;15.12;100.00;96298.97;5084080;28;20329;-58
2022/10/21 07:43:11;;;;;;;23.58;17.25;;;;;;;15.14;100.00;96294.28;5084055;28;20242;-58
2022/10/21 07:45:41;;;;;;;33.15;19.90;;;;;;;15.18;100.00;96288.44;5084610;28;20202;-58
2022/10/21 07:48:08;;;;;;;29.67;18.08;;;;;;;15.23;100.00;96288.69;5083900;28;20294;-59
2022/10/21 07:50:37;;;;;;;23.85;17.23;;;;;;;15.25;100.00;96299.19;5083599;28;20222;-58
2022/10/21 07:53:04;;;;;;;20.83;16.00;;;;;;;15.31;100.00;96306.47;5083841;28;20600;-57
2022/10/21 07:55:31;;;;;;;19.40;15.13;;;;;;;15.34;100.00;96309.59;5084771;28;20237;-58
2022/10/21 07:57:58;;;;;;;20.35;16.48;;;;;;;15.37;100.00;96313.75;5083771;28;20669;-58
2022/10/21 08:00:25;;;;;;;23.13;19.98;;;;;;;15.40;100.00;96330.19;5083366;28;20306;-55
2022/10/21 08:02:56;;;;;;;19.55;16.35;;;;;;;15.48;100.00;96334.59;5085230;28;20270;-58
2022/10/21 08:05:23;;;;;;;17.67;15.77;;;;;;;15.48;100.00;96339.13;5092348;28;20246;-59
2022/10/21 08:07:52;;;;;;;18.02;13.73;;;;;;;15.48;100.00;96353.25;5091652;28;20263;-59
2022/10/21 08:10:21;;;;;;;15.50;13.95;;;;;;;15.49;100.00;96378.09;5088623;28;20233;-58
2022/10/21 08:12:48;;;;;;;17.80;10.23;;;;;;;15.57;100.00;96421.53;5083556;28;20198;-58
2022/10/21 08:15:15;;;;;;;10.98;8.20;;;;;;;15.76;100.00;96526.84;5098236;28;20198;-58
2022/10/21 08:17:42;;;;;;;14.85;13.35;;;;;;;15.64;100.00;96528.25;5106790;28;20209;-59
2022/10/21 08:20:09;;;;;;;15.35;12.77;;;;;;;15.61;100.00;96540.09;5107401;28;20209;-58
2022/10/21 08:22:36;;;;;;;14.95;12.20;;;;;;;15.62;100.00;96536.44;5089360;28;20271;-58
2022/10/21 08:25:05;;;;;;;13.40;11.95;;;;;;;15.67;100.00;96523.41;5085510;28;20547;-58
2022/10/21 08:27:32;;;;;;;13.80;10.63;;;;;;;15.55;100.00;96500.84;5084240;28;20230;-57
2022/10/21 08:29:59;;;;;;;14.52;11.00;;;;;;;15.55;100.00;96502.69;5083186;28;20330;-58
2022/10/21 08:32:26;;;;;;;11.98;10.63;;;;;;;15.51;100.00;96502.19;5085304;28;20579;-57
2022/10/21 08:34:53;;;;;;;16.35;11.40;;;;;;;15.49;100.00;96485.53;5083745;28;20203;-57
2022/10/21 08:37:20;;;;;;;11.45;10.00;;;;;;;15.50;100.00;96473.88;5083886;28;20201;-58
2022/10/21 08:39:47;;;;;;;16.98;11.00;;;;;;;15.50;100.00;96465.88;5083871;28;20257;-57
2022/10/21 08:42:16;;;;;;;12.77;8.90;;;;;;;15.50;100.00;96473.88;5083451;28;20230;-58
2022/10/21 08:44:47;;;;;;;14.25;9.68;;;;;;;15.50;100.00;96470.38;5083534;28;20229;-58
2022/10/21 08:47:20;;;;;;;10.38;8.65;;;;;;;15.51;100.00;96472.88;5083608;28;20201;-58
2022/10/21 08:49:54;;;;;;;7.82;6.82;;;;;;;15.51;100.00;96480.88;5082592;28;20578;-58
2022/10/21 08:52:26;;;;;;;7.78;6.97;;;;;;;15.50;100.00;96481.03;5082500;28;20304;-57
2022/10/21 08:54:56;;;;;;;6.55;5.72;;;;;;;15.49;100.00;96477.53;5082837;28;20206;-58
2022/10/21 08:57:25;;;;;;;7.45;6.10;;;;;;;15.47;100.00;96471.53;5083085;28;20218;-57
2022/10/21 08:59:52;;;;;;;6.32;5.28;;;;;;;15.49;100.00;96474.88;5082556;28;20272;-58
2022/10/21 09:02:35;;;;;;;5.90;5.30;;;;;;;15.48;100.00;96483.84;5082965;28;20284;-57
2022/10/21 09:05:53;;;;;;;8.02;7.25;;;;;;;15.50;100.00;96476.53;5082978;28;20350;-58
2022/10/21 09:08:25;;;;;;;6.90;4.95;;;;;;;15.51;100.00;96480.88;4997306;28;20207;-58
2022/10/21 09:10:59;;;;;;;5.82;4.65;;;;;;;15.52;100.00;96476.38;5079100;28;20206;-57
2022/10/21 09:13:54;;;;;;;5.13;4.63;;;;;;;15.52;100.00;96482.50;5089555;28;20217;-57
2022/10/21 09:16:26;;;;;;;9.45;4.82;;;;;;;15.54;100.00;96477.84;5089953;28;20202;-58
2022/10/21 09:19:03;;;;;;;4.65;4.20;;;;;;;15.56;100.00;96477.66;5094622;28;20183;-58
2022/10/21 09:21:38;;;;;;;8.27;5.10;;;;;;;15.57;100.00;96480.16;5094082;28;20197;-58
2022/10/21 09:24:07;;;;;;;8.02;4.50;;;;;;;15.57;100.00;96488.16;5098785;28;20182;-58
2022/10/21 09:26:37;;;;;;;4.68;4.22;;;;;;;15.57;100.00;96488.16;5098126;28;20209;-57
2022/10/21 09:29:18;;;;;;;4.28;3.80;;;;;;;15.57;100.00;96496.16;5094115;28;20268;-57
2022/10/21 09:31:45;;;;;;;5.35;4.20;;;;;;;15.57;100.00;96500.66;5083593;28;20321;-57
2022/10/21 09:34:21;;;;;;;10.55;8.07;;;;;;;15.55;100.00;96497.34;5083304;28;20202;-58
2022/10/21 09:36:51;;;;;;;9.68;7.18;;;;;;;15.55;100.00;96502.69;5082858;28;20663;-57
2022/10/21 09:39:20;;;;;;;6.93;4.38;;;;;;;15.55;100.00;96508.84;5082250;28;20249;-58
2022/10/21 09:41:53;;;;;;;5.40;3.53;;;;;;;15.55;100.00;96503.50;5081563;28;20233;-57
2022/10/21 09:44:23;;;;;;;3.08;2.88;;;;;;;15.55;100.00;96498.19;5082192;28;20281;-58
2022/10/21 09:46:52;;;;;;;2.92;2.65;;;;;;;15.53;100.00;96502.84;5082575;28;20286;-58
2022/10/21 09:49:26;;;;;;;3.53;2.78;;;;;;;15.55;100.00;96500.84;5082218;28;20193;-57
2022/10/21 09:51:54;;;;;;;7.25;3.10;;;;;;;15.56;100.00;96499.81;5082385;28;20847;-58
2022/10/21 09:54:26;;;;;;;3.90;3.58;;;;;;;15.52;100.00;96498.50;5083301;28;20244;-58
2022/10/21 09:56:57;;;;;;;4.07;3.67;;;;;;;15.53;100.00;96505.50;5082931;28;20209;-58
2022/10/21 09:59:25;;;;;;;4.95;3.70;;;;;;;15.53;100.00;96489.50;5082955;28;20217;-58
2022/10/21 10:01:53;;;;;;;4.25;3.60;;;;;;;15.54;100.00;96485.84;5084645;28;20206;-57
2022/10/21 10:04:26;;;;;;;3.97;3.67;;;;;;;15.55;100.00;96492.00;5084144;28;20372;-57
2022/10/21 10:06:53;;;;;;;4.57;3.60;;;;;;;15.56;100.00;96491.81;5081708;28;20198;-57
2022/10/21 10:09:26;;;;;;;4.03;3.63;;;;;;;15.58;100.00;96491.66;5081231;28;20264;-57
2022/10/21 10:11:55;;;;;;;7.25;4.00;;;;;;;15.57;100.00;96503.31;5081651;28;20538;-57
2022/10/21 10:14:32;;;;;;;4.15;3.75;;;;;;;15.54;100.00;96509.84;5081961;28;20289;-57
2022/10/21 10:17:19;;;;;;;4.55;4.10;;;;;;;15.56;100.00;96505.16;5082157;28;20201;-57
2022/10/21 10:20:17;;;;;;;4.18;3.85;;;;;;;15.56;100.00;96497.16;5081041;28;20942;-57
2022/10/21 10:22:48;;;;;;;4.10;3.20;;;;;;;15.55;100.00;96495.50;5081688;28;21389;-58
2022/10/21 10:25:21;;;;;;;4.40;3.60;;;;;;;15.53;100.00;96510.00;5081041;28;20221;-58
2022/10/21 10:27:50;;;;;;;4.60;3.45;;;;;;;15.54;100.00;96501.84;5081201;28;20201;-57
2022/10/21 10:30:19;;;;;;;3.92;2.75;;;;;;;15.52;100.00;96514.50;5080979;28;20210;-58
2022/10/21 10:32:49;;;;;;;3.10;2.90;;;;;;;15.52;100.00;96497.72;5082048;28;20298;-58
2022/10/21 10:35:23;;;;;;;5.00;2.90;;;;;;;15.49;100.00;96500.69;5101185;28;20217;-57
2022/10/21 10:37:51;;;;;;;3.97;2.72;;;;;;;15.50;100.00;96495.19;5104522;28;20178;-58
2022/10/21 10:40:22;;;;;;;4.53;2.90;;;;;;;15.50;100.00;96499.69;5100075;28;20247;-58
2022/10/21 10:42:52;;;;;;;3.53;2.60;;;;;;;15.45;100.00;96502.84;5089193;28;20206;-57
2022/10/21 10:45:22;;;;;;;5.15;2.83;;;;;;;15.48;100.00;96496.38;5087837;28;20843;-57
2022/10/21 10:47:52;;;;;;;6.60;2.90;;;;;;;15.51;100.00;96490.72;5084581;28;20297;-57
2022/10/21 10:50:41;;;;;;;6.10;3.35;;;;;;;15.53;100.00;96494.84;5084223;28;20308;-57
2022/10/21 10:53:26;;;;;;;3.70;3.10;;;;;;;15.54;100.00;96501.84;5084839;28;20214;-58
2022/10/21 10:55:59;;;;;;;3.17;2.83;;;;;;;15.56;100.00;96490.97;5069092;28;20255;-57
2022/10/21 10:58:27;;;;;;;4.45;3.40;;;;;;;15.55;100.00;96495.50;5086982;28;20297;-57
2022/10/21 11:00:57;;;;;;;5.90;3.50;;;;;;;15.56;100.00;96494.47;5086088;28;20332;-58
2022/10/21 11:03:29;;;;;;;5.25;3.40;;;;;;;15.56;100.00;96496.31;5087072;28;20194;-57
2022/10/21 11:06:01;;;;;;;5.85;2.95;;;;;;;15.54;100.00;96493.00;5085735;28;20262;-59
2022/10/21 11:08:33;;;;;;;3.50;2.63;;;;;;;15.56;100.00;96485.66;5085873;28;20301;-56
2022/10/21 11:11:01;;;;;;;2.67;2.47;;;;;;;15.56;100.00;96483.81;5084446;28;20275;-57
2022/10/21 11:13:28;;;;;;;3.53;2.63;;;;;;;15.56;100.00;96488.31;5084581;28;20206;-58
2022/10/21 11:16:04;;;;;;;3.70;2.28;;;;;;;15.54;100.00;96479.69;5084848;28;20225;-57
2022/10/21 11:18:35;;;;;;;9.80;2.47;;;;;;;15.52;100.00;96484.38;5085118;28;20202;-58
2022/10/21 11:21:10;;;;;;;6.63;2.22;;;;;;;15.51;100.00;96480.88;5085562;28;20302;-58
2022/10/21 11:24:09;;;;;;;2.72;2.22;;;;;;;15.52;100.00;96493.19;5084705;28;20210;-57